sensor_id;sensor_type;location;lat;lon;timestamp;P1;durP1;ratioP1;P2;durP2;ratioP2
54735;SDS011;40632;51.442;11.936;2022-10-31T00:00:41;24.13;;;12.27;;
54735;SDS011;40632;51.442;11.936;2022-10-31T00:03:07;22.33;;;12.18;;
54735;SDS011;40632;51.442;11.936;2022-10-31T00:05:33;19.08;;;11.40;;
54735;SDS011;40632;51.442;11.936;2022-10-31T00:07:58;16.10;;;10.23;;
54735;SDS011;40632;51.442;11.936;2022-10-31T00:10:24;18.50;;;9.98;;
54735;SDS011;40632;51.442;11.936;2022-10-31T00:12:52;15.52;;;8.60;;
54735;SDS011;40632;51.442;11.936;2022-10-31T00:15:17;16.50;;;8.20;;
54735;SDS011;40632;51.442;11.936;2022-10-31T00:17:43;14.75;;;7.82;;
54735;SDS011;40632;51.442;11.936;2022-10-31T00:20:09;13.05;;;8.07;;
54735;SDS011;40632;51.442;11.936;2022-10-31T00:22:34;12.82;;;7.15;;
54735;SDS011;40632;51.442;11.936;2022-10-31T00:25:00;15.60;;;6.70;;
54735;SDS011;40632;51.442;11.936;2022-10-31T00:27:25;13.85;;;6.95;;
54735;SDS011;40632;51.442;11.936;2022-10-31T00:29:54;19.33;;;8.25;;
54735;SDS011;40632;51.442;11.936;2022-10-31T00:32:19;11.73;;;7.95;;
54735;SDS011;40632;51.442;11.936;2022-10-31T00:34:45;18.15;;;10.50;;
54735;SDS011;40632;51.442;11.936;2022-10-31T00:37:10;13.32;;;7.88;;
54735;SDS011;40632;51.442;11.936;2022-10-31T00:39:36;11.40;;;7.80;;
54735;SDS011;40632;51.442;11.936;2022-10-31T00:42:01;15.95;;;8.05;;
54735;SDS011;40632;51.442;11.936;2022-10-31T00:44:27;12.18;;;7.35;;
54735;SDS011;40632;51.442;11.936;2022-10-31T00:46:55;12.07;;;8.15;;
54735;SDS011;40632;51.442;11.936;2022-10-31T00:49:21;13.95;;;7.95;;
54735;SDS011;40632;51.442;11.936;2022-10-31T00:51:46;15.27;;;7.50;;
54735;SDS011;40632;51.442;11.936;2022-10-31T00:54:12;16.60;;;7.30;;
54735;SDS011;40632;51.442;11.936;2022-10-31T00:56:38;15.95;;;7.30;;
54735;SDS011;40632;51.442;11.936;2022-10-31T00:59:03;12.23;;;7.18;;
54735;SDS011;40632;51.442;11.936;2022-10-31T01:01:29;10.82;;;7.45;;
54735;SDS011;40632;51.442;11.936;2022-10-31T01:03:57;16.27;;;7.28;;
54735;SDS011;40632;51.442;11.936;2022-10-31T01:06:23;16.35;;;7.65;;
54735;SDS011;40632;51.442;11.936;2022-10-31T01:08:48;13.43;;;7.82;;
54735;SDS011;40632;51.442;11.936;2022-10-31T01:11:14;13.27;;;7.25;;
54735;SDS011;40632;51.442;11.936;2022-10-31T01:13:42;10.43;;;7.30;;
54735;SDS011;40632;51.442;11.936;2022-10-31T01:16:10;17.92;;;7.82;;
54735;SDS011;40632;51.442;11.936;2022-10-31T01:18:37;14.50;;;7.55;;
54735;SDS011;40632;51.442;11.936;2022-10-31T01:21:06;13.50;;;8.05;;
54735;SDS011;40632;51.442;11.936;2022-10-31T01:23:34;11.93;;;7.43;;
54735;SDS011;40632;51.442;11.936;2022-10-31T01:26:00;14.55;;;7.88;;
54735;SDS011;40632;51.442;11.936;2022-10-31T01:28:27;14.48;;;8.13;;
54735;SDS011;40632;51.442;11.936;2022-10-31T01:30:53;12.80;;;8.63;;
54735;SDS011;40632;51.442;11.936;2022-10-31T01:33:19;13.48;;;7.40;;
54735;SDS011;40632;51.442;11.936;2022-10-31T01:35:44;12.82;;;7.80;;
54735;SDS011;40632;51.442;11.936;2022-10-31T01:38:12;20.05;;;7.72;;
54735;SDS011;40632;51.442;11.936;2022-10-31T01:40:38;13.23;;;7.95;;
54735;SDS011;40632;51.442;11.936;2022-10-31T01:43:03;17.92;;;7.72;;
54735;SDS011;40632;51.442;11.936;2022-10-31T01:45:29;11.50;;;8.00;;
54735;SDS011;40632;51.442;11.936;2022-10-31T01:47:55;14.20;;;7.95;;
54735;SDS011;40632;51.442;11.936;2022-10-31T01:50:23;21.63;;;8.43;;
54735;SDS011;40632;51.442;11.936;2022-10-31T01:52:53;13.95;;;8.43;;
54735;SDS011;40632;51.442;11.936;2022-10-31T01:55:23;13.55;;;8.43;;
54735;SDS011;40632;51.442;11.936;2022-10-31T01:57:53;17.40;;;8.38;;
54735;SDS011;40632;51.442;11.936;2022-10-31T02:00:22;14.38;;;8.25;;
54735;SDS011;40632;51.442;11.936;2022-10-31T02:02:48;15.35;;;9.25;;
54735;SDS011;40632;51.442;11.936;2022-10-31T02:05:16;15.90;;;9.25;;
54735;SDS011;40632;51.442;11.936;2022-10-31T02:07:45;14.68;;;8.95;;
54735;SDS011;40632;51.442;11.936;2022-10-31T02:10:16;13.98;;;8.93;;
54735;SDS011;40632;51.442;11.936;2022-10-31T02:12:46;15.00;;;8.48;;
54735;SDS011;40632;51.442;11.936;2022-10-31T02:15:12;15.52;;;9.00;;
54735;SDS011;40632;51.442;11.936;2022-10-31T02:17:38;13.50;;;8.07;;
54735;SDS011;40632;51.442;11.936;2022-10-31T02:20:06;17.05;;;8.45;;
54735;SDS011;40632;51.442;11.936;2022-10-31T02:22:40;16.05;;;7.70;;
54735;SDS011;40632;51.442;11.936;2022-10-31T02:25:32;13.43;;;8.63;;
54735;SDS011;40632;51.442;11.936;2022-10-31T02:28:20;14.35;;;8.07;;
54735;SDS011;40632;51.442;11.936;2022-10-31T02:31:04;17.88;;;8.45;;
54735;SDS011;40632;51.442;11.936;2022-10-31T02:33:42;15.05;;;8.15;;
54735;SDS011;40632;51.442;11.936;2022-10-31T02:36:15;12.40;;;7.85;;
54735;SDS011;40632;51.442;11.936;2022-10-31T02:38:50;13.02;;;8.20;;
54735;SDS011;40632;51.442;11.936;2022-10-31T02:41:25;13.25;;;8.15;;
54735;SDS011;40632;51.442;11.936;2022-10-31T02:43:58;14.73;;;8.30;;
54735;SDS011;40632;51.442;11.936;2022-10-31T02:46:34;12.60;;;8.52;;
54735;SDS011;40632;51.442;11.936;2022-10-31T02:49:05;13.15;;;8.00;;
54735;SDS011;40632;51.442;11.936;2022-10-31T02:51:35;16.45;;;7.50;;
54735;SDS011;40632;51.442;11.936;2022-10-31T02:54:01;11.85;;;7.32;;
54735;SDS011;40632;51.442;11.936;2022-10-31T02:56:26;16.00;;;7.82;;
54735;SDS011;40632;51.442;11.936;2022-10-31T02:58:52;12.77;;;6.70;;
54735;SDS011;40632;51.442;11.936;2022-10-31T03:01:37;13.90;;;7.60;;
54735;SDS011;40632;51.442;11.936;2022-10-31T03:04:29;10.65;;;7.68;;
54735;SDS011;40632;51.442;11.936;2022-10-31T03:07:08;15.98;;;6.68;;
54735;SDS011;40632;51.442;11.936;2022-10-31T03:09:42;11.93;;;7.07;;
54735;SDS011;40632;51.442;11.936;2022-10-31T03:12:16;13.70;;;6.72;;
54735;SDS011;40632;51.442;11.936;2022-10-31T03:14:51;14.43;;;7.38;;
54735;SDS011;40632;51.442;11.936;2022-10-31T03:17:25;16.25;;;7.43;;
54735;SDS011;40632;51.442;11.936;2022-10-31T03:19:56;12.27;;;7.78;;
54735;SDS011;40632;51.442;11.936;2022-10-31T03:22:25;12.55;;;7.78;;
54735;SDS011;40632;51.442;11.936;2022-10-31T03:24:53;15.48;;;7.88;;
54735;SDS011;40632;51.442;11.936;2022-10-31T03:27:21;14.82;;;7.65;;
54735;SDS011;40632;51.442;11.936;2022-10-31T03:29:50;12.48;;;7.13;;
54735;SDS011;40632;51.442;11.936;2022-10-31T03:32:20;10.73;;;6.70;;
54735;SDS011;40632;51.442;11.936;2022-10-31T03:34:53;14.20;;;8.10;;
54735;SDS011;40632;51.442;11.936;2022-10-31T03:37:23;15.70;;;7.38;;
54735;SDS011;40632;51.442;11.936;2022-10-31T03:39:52;12.32;;;7.40;;
54735;SDS011;40632;51.442;11.936;2022-10-31T03:42:20;14.55;;;8.10;;
54735;SDS011;40632;51.442;11.936;2022-10-31T03:44:49;11.63;;;7.32;;
54735;SDS011;40632;51.442;11.936;2022-10-31T03:47:18;13.02;;;6.90;;
54735;SDS011;40632;51.442;11.936;2022-10-31T03:49:47;14.68;;;7.22;;
54735;SDS011;40632;51.442;11.936;2022-10-31T03:52:13;10.35;;;7.18;;
54735;SDS011;40632;51.442;11.936;2022-10-31T03:54:49;13.73;;;7.82;;
54735;SDS011;40632;51.442;11.936;2022-10-31T03:57:18;17.15;;;8.48;;
54735;SDS011;40632;51.442;11.936;2022-10-31T03:59:50;11.55;;;7.22;;
54735;SDS011;40632;51.442;11.936;2022-10-31T04:02:21;13.85;;;7.28;;
54735;SDS011;40632;51.442;11.936;2022-10-31T04:04:53;12.30;;;7.80;;
54735;SDS011;40632;51.442;11.936;2022-10-31T04:07:19;14.38;;;7.60;;
54735;SDS011;40632;51.442;11.936;2022-10-31T04:09:48;10.98;;;7.68;;
54735;SDS011;40632;51.442;11.936;2022-10-31T04:12:16;12.23;;;7.50;;
54735;SDS011;40632;51.442;11.936;2022-10-31T04:14:45;13.82;;;7.47;;
54735;SDS011;40632;51.442;11.936;2022-10-31T04:17:12;13.52;;;7.93;;
54735;SDS011;40632;51.442;11.936;2022-10-31T04:19:41;13.65;;;8.35;;
54735;SDS011;40632;51.442;11.936;2022-10-31T04:22:09;12.77;;;8.30;;
54735;SDS011;40632;51.442;11.936;2022-10-31T04:24:35;16.85;;;8.95;;
54735;SDS011;40632;51.442;11.936;2022-10-31T04:27:01;15.05;;;8.75;;
54735;SDS011;40632;51.442;11.936;2022-10-31T04:29:27;14.88;;;9.18;;
54735;SDS011;40632;51.442;11.936;2022-10-31T04:31:52;14.35;;;7.90;;
54735;SDS011;40632;51.442;11.936;2022-10-31T04:34:18;14.38;;;8.57;;
54735;SDS011;40632;51.442;11.936;2022-10-31T04:36:43;13.05;;;8.23;;
54735;SDS011;40632;51.442;11.936;2022-10-31T04:39:11;13.73;;;8.10;;
54735;SDS011;40632;51.442;11.936;2022-10-31T04:41:37;11.63;;;8.55;;
54735;SDS011;40632;51.442;11.936;2022-10-31T04:44:02;12.70;;;8.75;;
54735;SDS011;40632;51.442;11.936;2022-10-31T04:46:28;14.32;;;8.13;;
54735;SDS011;40632;51.442;11.936;2022-10-31T04:48:54;14.50;;;7.82;;
54735;SDS011;40632;51.442;11.936;2022-10-31T04:51:19;13.02;;;8.52;;
54735;SDS011;40632;51.442;11.936;2022-10-31T04:53:45;14.68;;;8.70;;
54735;SDS011;40632;51.442;11.936;2022-10-31T04:56:13;17.33;;;8.95;;
54735;SDS011;40632;51.442;11.936;2022-10-31T04:58:39;14.85;;;8.68;;
54735;SDS011;40632;51.442;11.936;2022-10-31T05:01:04;14.75;;;8.20;;
54735;SDS011;40632;51.442;11.936;2022-10-31T05:03:30;13.65;;;8.48;;
54735;SDS011;40632;51.442;11.936;2022-10-31T05:05:55;15.30;;;8.60;;
54735;SDS011;40632;51.442;11.936;2022-10-31T05:08:21;15.02;;;8.65;;
54735;SDS011;40632;51.442;11.936;2022-10-31T05:10:47;12.85;;;8.60;;
54735;SDS011;40632;51.442;11.936;2022-10-31T05:13:15;15.43;;;8.57;;
54735;SDS011;40632;51.442;11.936;2022-10-31T05:15:41;14.90;;;8.30;;
54735;SDS011;40632;51.442;11.936;2022-10-31T05:18:06;14.77;;;9.50;;
54735;SDS011;40632;51.442;11.936;2022-10-31T05:20:32;15.25;;;7.82;;
54735;SDS011;40632;51.442;11.936;2022-10-31T05:22:58;16.17;;;7.82;;
54735;SDS011;40632;51.442;11.936;2022-10-31T05:25:26;14.15;;;8.02;;
54735;SDS011;40632;51.442;11.936;2022-10-31T05:27:53;12.57;;;7.95;;
54735;SDS011;40632;51.442;11.936;2022-10-31T05:30:23;12.52;;;7.63;;
54735;SDS011;40632;51.442;11.936;2022-10-31T05:32:50;10.95;;;8.52;;
54735;SDS011;40632;51.442;11.936;2022-10-31T05:35:17;16.60;;;8.95;;
54735;SDS011;40632;51.442;11.936;2022-10-31T05:37:44;12.27;;;7.97;;
54735;SDS011;40632;51.442;11.936;2022-10-31T05:40:10;12.68;;;8.65;;
54735;SDS011;40632;51.442;11.936;2022-10-31T05:42:38;14.35;;;8.90;;
54735;SDS011;40632;51.442;11.936;2022-10-31T05:45:04;17.42;;;10.10;;
54735;SDS011;40632;51.442;11.936;2022-10-31T05:47:33;12.75;;;8.05;;
54735;SDS011;40632;51.442;11.936;2022-10-31T05:49:59;13.90;;;8.20;;
54735;SDS011;40632;51.442;11.936;2022-10-31T05:52:24;13.57;;;9.20;;
54735;SDS011;40632;51.442;11.936;2022-10-31T05:54:50;15.88;;;9.10;;
54735;SDS011;40632;51.442;11.936;2022-10-31T05:57:15;17.13;;;9.32;;
54735;SDS011;40632;51.442;11.936;2022-10-31T05:59:41;14.68;;;8.70;;
54735;SDS011;40632;51.442;11.936;2022-10-31T06:02:07;14.18;;;9.48;;
54735;SDS011;40632;51.442;11.936;2022-10-31T06:04:35;13.40;;;9.10;;
54735;SDS011;40632;51.442;11.936;2022-10-31T06:07:01;14.93;;;9.40;;
54735;SDS011;40632;51.442;11.936;2022-10-31T06:09:26;17.40;;;9.55;;
54735;SDS011;40632;51.442;11.936;2022-10-31T06:11:52;15.30;;;9.15;;
54735;SDS011;40632;51.442;11.936;2022-10-31T06:14:17;16.95;;;9.30;;
54735;SDS011;40632;51.442;11.936;2022-10-31T06:16:43;17.23;;;9.07;;
54735;SDS011;40632;51.442;11.936;2022-10-31T06:19:09;11.95;;;9.05;;
54735;SDS011;40632;51.442;11.936;2022-10-31T06:21:37;16.15;;;9.18;;
54735;SDS011;40632;51.442;11.936;2022-10-31T06:24:03;16.23;;;9.80;;
54735;SDS011;40632;51.442;11.936;2022-10-31T06:26:29;17.35;;;9.27;;
54735;SDS011;40632;51.442;11.936;2022-10-31T06:28:55;19.65;;;9.70;;
54735;SDS011;40632;51.442;11.936;2022-10-31T06:31:20;16.52;;;9.85;;
54735;SDS011;40632;51.442;11.936;2022-10-31T06:33:46;16.75;;;11.23;;
54735;SDS011;40632;51.442;11.936;2022-10-31T06:36:11;19.70;;;10.27;;
54735;SDS011;40632;51.442;11.936;2022-10-31T06:38:40;15.05;;;9.07;;
54735;SDS011;40632;51.442;11.936;2022-10-31T06:41:05;11.38;;;8.32;;
54735;SDS011;40632;51.442;11.936;2022-10-31T06:43:32;13.63;;;8.95;;
54735;SDS011;40632;51.442;11.936;2022-10-31T06:46:01;13.02;;;9.00;;
54735;SDS011;40632;51.442;11.936;2022-10-31T06:48:27;15.68;;;9.32;;
54735;SDS011;40632;51.442;11.936;2022-10-31T06:50:53;16.35;;;9.68;;
54735;SDS011;40632;51.442;11.936;2022-10-31T06:53:18;15.20;;;8.80;;
54735;SDS011;40632;51.442;11.936;2022-10-31T06:55:46;14.73;;;8.80;;
54735;SDS011;40632;51.442;11.936;2022-10-31T06:58:12;15.15;;;8.50;;
54735;SDS011;40632;51.442;11.936;2022-10-31T07:00:37;14.95;;;9.73;;
54735;SDS011;40632;51.442;11.936;2022-10-31T07:03:04;16.27;;;9.18;;
54735;SDS011;40632;51.442;11.936;2022-10-31T07:05:31;15.57;;;9.50;;
54735;SDS011;40632;51.442;11.936;2022-10-31T07:07:58;14.90;;;8.93;;
54735;SDS011;40632;51.442;11.936;2022-10-31T07:10:25;14.40;;;8.43;;
54735;SDS011;40632;51.442;11.936;2022-10-31T07:12:56;13.15;;;7.82;;
54735;SDS011;40632;51.442;11.936;2022-10-31T07:15:23;13.05;;;7.90;;
54735;SDS011;40632;51.442;11.936;2022-10-31T07:17:49;17.05;;;8.82;;
54735;SDS011;40632;51.442;11.936;2022-10-31T07:20:14;13.57;;;8.18;;
54735;SDS011;40632;51.442;11.936;2022-10-31T07:22:40;13.50;;;8.85;;
54735;SDS011;40632;51.442;11.936;2022-10-31T07:25:06;17.63;;;9.32;;
54735;SDS011;40632;51.442;11.936;2022-10-31T07:27:35;16.50;;;8.18;;
54735;SDS011;40632;51.442;11.936;2022-10-31T07:30:04;15.18;;;9.40;;
54735;SDS011;40632;51.442;11.936;2022-10-31T07:32:37;15.20;;;8.30;;
54735;SDS011;40632;51.442;11.936;2022-10-31T07:35:03;11.40;;;8.13;;
54735;SDS011;40632;51.442;11.936;2022-10-31T07:37:29;11.55;;;7.95;;
54735;SDS011;40632;51.442;11.936;2022-10-31T07:39:54;14.60;;;7.53;;
54735;SDS011;40632;51.442;11.936;2022-10-31T07:42:20;11.82;;;8.00;;
54735;SDS011;40632;51.442;11.936;2022-10-31T07:44:45;12.20;;;7.38;;
54735;SDS011;40632;51.442;11.936;2022-10-31T07:47:13;13.38;;;8.40;;
54735;SDS011;40632;51.442;11.936;2022-10-31T07:49:39;14.45;;;8.25;;
54735;SDS011;40632;51.442;11.936;2022-10-31T07:52:04;14.57;;;8.13;;
54735;SDS011;40632;51.442;11.936;2022-10-31T07:54:30;17.40;;;8.60;;
54735;SDS011;40632;51.442;11.936;2022-10-31T07:56:56;12.43;;;7.57;;
54735;SDS011;40632;51.442;11.936;2022-10-31T07:59:21;15.10;;;8.45;;
54735;SDS011;40632;51.442;11.936;2022-10-31T08:01:47;14.88;;;8.55;;
54735;SDS011;40632;51.442;11.936;2022-10-31T08:04:15;13.25;;;8.95;;
54735;SDS011;40632;51.442;11.936;2022-10-31T08:06:41;14.02;;;7.90;;
54735;SDS011;40632;51.442;11.936;2022-10-31T08:09:06;10.15;;;7.15;;
54735;SDS011;40632;51.442;11.936;2022-10-31T08:11:32;12.40;;;7.50;;
54735;SDS011;40632;51.442;11.936;2022-10-31T08:13:58;11.55;;;7.00;;
54735;SDS011;40632;51.442;11.936;2022-10-31T08:16:23;14.10;;;8.15;;
54735;SDS011;40632;51.442;11.936;2022-10-31T08:18:49;13.70;;;8.30;;
54735;SDS011;40632;51.442;11.936;2022-10-31T08:21:17;18.42;;;7.90;;
54735;SDS011;40632;51.442;11.936;2022-10-31T08:23:42;13.07;;;8.80;;
54735;SDS011;40632;51.442;11.936;2022-10-31T08:26:08;12.13;;;8.52;;
54735;SDS011;40632;51.442;11.936;2022-10-31T08:28:33;14.18;;;7.85;;
54735;SDS011;40632;51.442;11.936;2022-10-31T08:30:59;12.18;;;8.52;;
54735;SDS011;40632;51.442;11.936;2022-10-31T08:33:25;19.00;;;9.13;;
54735;SDS011;40632;51.442;11.936;2022-10-31T08:35:50;13.98;;;9.48;;
54735;SDS011;40632;51.442;11.936;2022-10-31T08:38:18;17.13;;;9.82;;
54735;SDS011;40632;51.442;11.936;2022-10-31T08:40:47;18.40;;;8.98;;
54735;SDS011;40632;51.442;11.936;2022-10-31T08:43:14;16.95;;;8.85;;
54735;SDS011;40632;51.442;11.936;2022-10-31T08:45:41;16.50;;;8.93;;
54735;SDS011;40632;51.442;11.936;2022-10-31T08:48:11;14.27;;;9.02;;
54735;SDS011;40632;51.442;11.936;2022-10-31T08:50:38;14.35;;;9.02;;
54735;SDS011;40632;51.442;11.936;2022-10-31T08:53:05;14.30;;;8.52;;
54735;SDS011;40632;51.442;11.936;2022-10-31T08:55:35;13.15;;;8.90;;
54735;SDS011;40632;51.442;11.936;2022-10-31T08:58:02;13.95;;;8.75;;
54735;SDS011;40632;51.442;11.936;2022-10-31T09:00:28;19.65;;;10.00;;
54735;SDS011;40632;51.442;11.936;2022-10-31T09:02:55;20.00;;;10.05;;
54735;SDS011;40632;51.442;11.936;2022-10-31T09:05:21;16.27;;;10.25;;
54735;SDS011;40632;51.442;11.936;2022-10-31T09:07:47;17.65;;;10.23;;
54735;SDS011;40632;51.442;11.936;2022-10-31T09:10:13;17.17;;;9.27;;
54735;SDS011;40632;51.442;11.936;2022-10-31T09:12:41;17.23;;;10.23;;
54735;SDS011;40632;51.442;11.936;2022-10-31T09:15:07;19.60;;;11.05;;
54735;SDS011;40632;51.442;11.936;2022-10-31T09:17:33;19.88;;;11.45;;
54735;SDS011;40632;51.442;11.936;2022-10-31T09:19:59;24.85;;;12.88;;
54735;SDS011;40632;51.442;11.936;2022-10-31T09:22:24;20.23;;;12.85;;
54735;SDS011;40632;51.442;11.936;2022-10-31T09:24:50;22.98;;;13.63;;
54735;SDS011;40632;51.442;11.936;2022-10-31T09:27:15;28.40;;;12.95;;
54735;SDS011;40632;51.442;11.936;2022-10-31T09:29:43;23.80;;;12.70;;
54735;SDS011;40632;51.442;11.936;2022-10-31T09:32:09;23.70;;;12.50;;
54735;SDS011;40632;51.442;11.936;2022-10-31T09:34:35;20.70;;;12.88;;
54735;SDS011;40632;51.442;11.936;2022-10-31T09:37:00;20.75;;;13.75;;
54735;SDS011;40632;51.442;11.936;2022-10-31T09:39:26;31.00;;;17.25;;
54735;SDS011;40632;51.442;11.936;2022-10-31T09:44:51;29.88;;;17.85;;
54735;SDS011;40632;51.442;11.936;2022-10-31T09:47:29;29.25;;;17.50;;
54735;SDS011;40632;51.442;11.936;2022-10-31T09:50:15;33.78;;;18.13;;
54735;SDS011;40632;51.442;11.936;2022-10-31T09:52:49;30.80;;;17.90;;
54735;SDS011;40632;51.442;11.936;2022-10-31T09:55:24;33.97;;;17.40;;
54735;SDS011;40632;51.442;11.936;2022-10-31T09:57:56;27.15;;;17.48;;
54735;SDS011;40632;51.442;11.936;2022-10-31T10:00:27;29.73;;;19.35;;
54735;SDS011;40632;51.442;11.936;2022-10-31T10:02:53;32.90;;;18.60;;
54735;SDS011;40632;51.442;11.936;2022-10-31T10:05:24;29.85;;;17.92;;
54735;SDS011;40632;51.442;11.936;2022-10-31T10:07:59;38.03;;;20.45;;
54735;SDS011;40632;51.442;11.936;2022-10-31T10:10:30;37.80;;;20.65;;
54735;SDS011;40632;51.442;11.936;2022-10-31T10:13:11;32.25;;;21.02;;
54735;SDS011;40632;51.442;11.936;2022-10-31T10:15:55;35.75;;;22.13;;
54735;SDS011;40632;51.442;11.936;2022-10-31T10:18:30;38.22;;;20.52;;
54735;SDS011;40632;51.442;11.936;2022-10-31T10:21:06;36.42;;;21.88;;
54735;SDS011;40632;51.442;11.936;2022-10-31T10:23:44;37.53;;;22.30;;
54735;SDS011;40632;51.442;11.936;2022-10-31T10:26:20;36.90;;;21.13;;
54735;SDS011;40632;51.442;11.936;2022-10-31T10:28:47;34.83;;;22.67;;
54735;SDS011;40632;51.442;11.936;2022-10-31T10:31:20;38.40;;;22.83;;
54735;SDS011;40632;51.442;11.936;2022-10-31T10:33:54;40.00;;;23.40;;
54735;SDS011;40632;51.442;11.936;2022-10-31T10:36:27;36.60;;;22.00;;
54735;SDS011;40632;51.442;11.936;2022-10-31T10:38:59;36.77;;;23.33;;
54735;SDS011;40632;51.442;11.936;2022-10-31T10:41:28;42.90;;;22.98;;
54735;SDS011;40632;51.442;11.936;2022-10-31T10:43:57;38.67;;;23.15;;
54735;SDS011;40632;51.442;11.936;2022-10-31T10:46:26;40.08;;;23.33;;
54735;SDS011;40632;51.442;11.936;2022-10-31T10:49:00;39.67;;;24.33;;
54735;SDS011;40632;51.442;11.936;2022-10-31T10:51:38;42.35;;;24.33;;
54735;SDS011;40632;51.442;11.936;2022-10-31T10:54:12;41.63;;;25.27;;
54735;SDS011;40632;51.442;11.936;2022-10-31T10:56:49;46.95;;;28.17;;
54735;SDS011;40632;51.442;11.936;2022-10-31T10:59:23;49.28;;;25.80;;
54735;SDS011;40632;51.442;11.936;2022-10-31T11:01:51;49.13;;;25.73;;
54735;SDS011;40632;51.442;11.936;2022-10-31T11:04:24;47.85;;;26.73;;
54735;SDS011;40632;51.442;11.936;2022-10-31T11:06:57;47.58;;;26.20;;
54735;SDS011;40632;51.442;11.936;2022-10-31T11:09:27;50.58;;;25.90;;
54735;SDS011;40632;51.442;11.936;2022-10-31T11:11:53;46.50;;;25.58;;
54735;SDS011;40632;51.442;11.936;2022-10-31T11:14:20;50.33;;;27.20;;
54735;SDS011;40632;51.442;11.936;2022-10-31T11:16:47;44.92;;;26.58;;
54735;SDS011;40632;51.442;11.936;2022-10-31T11:19:19;47.05;;;26.85;;
54735;SDS011;40632;51.442;11.936;2022-10-31T11:21:46;42.55;;;25.83;;
54735;SDS011;40632;51.442;11.936;2022-10-31T11:24:14;91.28;;;42.28;;
54735;SDS011;40632;51.442;11.936;2022-10-31T11:26:41;47.83;;;27.73;;
54735;SDS011;40632;51.442;11.936;2022-10-31T11:29:12;54.65;;;27.38;;
54735;SDS011;40632;51.442;11.936;2022-10-31T11:31:39;52.38;;;26.75;;
54735;SDS011;40632;51.442;11.936;2022-10-31T11:34:06;49.83;;;26.92;;
54735;SDS011;40632;51.442;11.936;2022-10-31T11:36:42;46.28;;;28.58;;
54735;SDS011;40632;51.442;11.936;2022-10-31T11:39:13;49.17;;;27.08;;
54735;SDS011;40632;51.442;11.936;2022-10-31T11:41:43;48.63;;;27.02;;
54735;SDS011;40632;51.442;11.936;2022-10-31T11:44:11;45.25;;;26.95;;
54735;SDS011;40632;51.442;11.936;2022-10-31T11:46:41;40.90;;;25.30;;
54735;SDS011;40632;51.442;11.936;2022-10-31T11:49:13;48.00;;;26.52;;
54735;SDS011;40632;51.442;11.936;2022-10-31T11:51:46;40.83;;;25.65;;
54735;SDS011;40632;51.442;11.936;2022-10-31T11:54:18;46.42;;;26.25;;
54735;SDS011;40632;51.442;11.936;2022-10-31T11:56:46;43.63;;;25.50;;
54735;SDS011;40632;51.442;11.936;2022-10-31T11:59:15;42.00;;;25.70;;
54735;SDS011;40632;51.442;11.936;2022-10-31T12:01:46;39.05;;;25.05;;
54735;SDS011;40632;51.442;11.936;2022-10-31T12:04:13;39.22;;;25.25;;
54735;SDS011;40632;51.442;11.936;2022-10-31T12:06:39;42.35;;;25.48;;
54735;SDS011;40632;51.442;11.936;2022-10-31T12:09:14;39.33;;;24.92;;
54735;SDS011;40632;51.442;11.936;2022-10-31T12:11:47;39.35;;;25.73;;
54735;SDS011;40632;51.442;11.936;2022-10-31T12:14:28;46.00;;;26.17;;
54735;SDS011;40632;51.442;11.936;2022-10-31T12:17:03;45.60;;;26.52;;
54735;SDS011;40632;51.442;11.936;2022-10-31T12:19:36;47.67;;;24.65;;
54735;SDS011;40632;51.442;11.936;2022-10-31T12:22:09;42.13;;;24.63;;
54735;SDS011;40632;51.442;11.936;2022-10-31T12:24:50;43.72;;;24.67;;
54735;SDS011;40632;51.442;11.936;2022-10-31T12:27:31;41.47;;;23.70;;
54735;SDS011;40632;51.442;11.936;2022-10-31T12:30:13;40.97;;;23.52;;
54735;SDS011;40632;51.442;11.936;2022-10-31T12:32:58;39.95;;;22.77;;
54735;SDS011;40632;51.442;11.936;2022-10-31T12:35:40;44.47;;;23.77;;
54735;SDS011;40632;51.442;11.936;2022-10-31T12:41:06;37.70;;;23.05;;
54735;SDS011;40632;51.442;11.936;2022-10-31T12:43:43;38.28;;;24.13;;
54735;SDS011;40632;51.442;11.936;2022-10-31T12:46:13;41.75;;;24.73;;
54735;SDS011;40632;51.442;11.936;2022-10-31T12:49:01;38.03;;;24.35;;
54735;SDS011;40632;51.442;11.936;2022-10-31T12:51:38;38.97;;;24.17;;
54735;SDS011;40632;51.442;11.936;2022-10-31T12:54:19;37.22;;;24.95;;
54735;SDS011;40632;51.442;11.936;2022-10-31T12:57:00;41.88;;;23.88;;
54735;SDS011;40632;51.442;11.936;2022-10-31T12:59:33;42.35;;;23.98;;
54735;SDS011;40632;51.442;11.936;2022-10-31T13:02:04;44.08;;;25.15;;
54735;SDS011;40632;51.442;11.936;2022-10-31T13:04:40;36.05;;;23.15;;
54735;SDS011;40632;51.442;11.936;2022-10-31T13:07:10;40.35;;;24.92;;
54735;SDS011;40632;51.442;11.936;2022-10-31T13:09:40;41.53;;;24.63;;
54735;SDS011;40632;51.442;11.936;2022-10-31T13:12:14;48.60;;;27.17;;
54735;SDS011;40632;51.442;11.936;2022-10-31T13:14:46;42.55;;;23.88;;
54735;SDS011;40632;51.442;11.936;2022-10-31T13:17:19;45.88;;;24.77;;
54735;SDS011;40632;51.442;11.936;2022-10-31T13:19:49;40.70;;;24.20;;
54735;SDS011;40632;51.442;11.936;2022-10-31T13:22:17;44.75;;;26.58;;
54735;SDS011;40632;51.442;11.936;2022-10-31T13:24:46;47.25;;;24.98;;
54735;SDS011;40632;51.442;11.936;2022-10-31T13:27:22;44.85;;;26.33;;
54735;SDS011;40632;51.442;11.936;2022-10-31T13:29:54;45.38;;;26.13;;
54735;SDS011;40632;51.442;11.936;2022-10-31T13:32:26;41.30;;;26.15;;
54735;SDS011;40632;51.442;11.936;2022-10-31T13:34:54;44.17;;;26.15;;
54735;SDS011;40632;51.442;11.936;2022-10-31T13:37:29;46.65;;;26.52;;
54735;SDS011;40632;51.442;11.936;2022-10-31T13:40:04;40.63;;;26.52;;
54735;SDS011;40632;51.442;11.936;2022-10-31T13:42:49;47.70;;;26.42;;
54735;SDS011;40632;51.442;11.936;2022-10-31T13:45:21;41.05;;;26.38;;
54735;SDS011;40632;51.442;11.936;2022-10-31T13:47:55;50.85;;;27.15;;
54735;SDS011;40632;51.442;11.936;2022-10-31T13:50:23;47.40;;;26.98;;
54735;SDS011;40632;51.442;11.936;2022-10-31T13:52:50;44.00;;;25.33;;
54735;SDS011;40632;51.442;11.936;2022-10-31T13:58:02;50.60;;;27.10;;
54735;SDS011;40632;51.442;11.936;2022-10-31T14:00:29;49.85;;;27.23;;
54735;SDS011;40632;51.442;11.936;2022-10-31T14:02:56;51.72;;;27.55;;
54735;SDS011;40632;51.442;11.936;2022-10-31T14:05:23;48.70;;;27.13;;
54735;SDS011;40632;51.442;11.936;2022-10-31T14:07:51;41.78;;;26.08;;
54735;SDS011;40632;51.442;11.936;2022-10-31T14:10:20;44.63;;;26.15;;
54735;SDS011;40632;51.442;11.936;2022-10-31T14:12:49;49.05;;;26.35;;
54735;SDS011;40632;51.442;11.936;2022-10-31T14:15:18;46.00;;;27.60;;
54735;SDS011;40632;51.442;11.936;2022-10-31T14:17:47;47.15;;;27.33;;
54735;SDS011;40632;51.442;11.936;2022-10-31T14:20:23;42.90;;;27.48;;
54735;SDS011;40632;51.442;11.936;2022-10-31T14:23:10;46.95;;;27.90;;
54735;SDS011;40632;51.442;11.936;2022-10-31T14:26:05;46.22;;;28.05;;
54735;SDS011;40632;51.442;11.936;2022-10-31T14:28:41;46.40;;;27.70;;
54735;SDS011;40632;51.442;11.936;2022-10-31T14:33:59;58.73;;;29.70;;
54735;SDS011;40632;51.442;11.936;2022-10-31T14:36:28;49.80;;;27.50;;
54735;SDS011;40632;51.442;11.936;2022-10-31T14:39:04;45.63;;;27.42;;